createdAt,value
2019-01-26T00:01:41.658Z,95.62
2019-01-26T00:04:10.895Z,95.67
2019-01-26T00:06:39.772Z,95.85
2019-01-26T00:09:10.546Z,95.78
2019-01-26T00:11:39.466Z,95.81
2019-01-26T00:14:08.485Z,95.75
2019-01-26T00:16:38.487Z,95.74
2019-01-26T00:19:07.446Z,95.68
2019-01-26T00:21:36.587Z,95.74
2019-01-26T00:24:07.686Z,95.66
2019-01-26T00:26:36.562Z,95.75
2019-01-26T00:29:05.859Z,95.90
2019-01-26T00:31:35.019Z,95.89
2019-01-26T00:34:03.921Z,96.04
2019-01-26T00:36:33.443Z,95.97
2019-01-26T00:39:02.354Z,95.85
2019-01-26T00:41:31.139Z,96.01
2019-01-26T00:44:00.805Z,96.27
2019-01-26T00:46:30.654Z,96.15
2019-01-26T00:48:59.455Z,96.22
2019-01-26T00:51:28.659Z,96.23
2019-01-26T00:53:57.958Z,96.30
2019-01-26T00:56:27.331Z,96.41
2019-01-26T00:58:56.265Z,96.45
2019-01-26T01:01:25.910Z,96.52
2019-01-26T01:03:54.901Z,96.47
2019-01-26T01:06:26.026Z,96.52
2019-01-26T01:08:54.529Z,96.47
2019-01-26T01:11:23.597Z,96.40
2019-01-26T01:13:52.406Z,96.46
2019-01-26T01:16:21.608Z,96.49
2019-01-26T01:18:50.773Z,96.59
2019-01-26T01:21:19.562Z,96.70
2019-01-26T01:23:48.628Z,96.89
2019-01-26T01:26:20.788Z,96.77
2019-01-26T01:28:49.963Z,96.91
2019-01-26T01:31:19.067Z,96.85
2019-01-26T01:33:48.467Z,96.94
2019-01-26T01:36:17.458Z,96.97
2019-01-26T01:38:46.402Z,97.33
2019-01-26T01:41:15.230Z,97.18
2019-01-26T01:43:44.377Z,97.10
2019-01-26T01:46:43.426Z,97.16
2019-01-26T01:49:12.831Z,97.06
2019-01-26T01:51:42.033Z,97.31
2019-01-26T01:54:10.970Z,97.26
2019-01-26T01:56:39.754Z,97.21
2019-01-26T01:59:08.597Z,97.26
2019-01-26T02:01:38.009Z,97.36
2019-01-26T02:04:07.098Z,97.44
2019-01-26T02:06:36.044Z,97.58
2019-01-26T02:09:08.629Z,97.64
2019-01-26T02:11:40.759Z,97.68
2019-01-26T02:14:09.921Z,97.79
2019-01-26T02:16:39.082Z,97.87
2019-01-26T02:19:07.898Z,98.00
2019-01-26T02:21:37.019Z,97.96
2019-01-26T02:24:06.174Z,98.09
2019-01-26T02:26:35.138Z,98.25
2019-01-26T02:29:04.657Z,98.21
2019-01-26T02:31:33.887Z,98.33
2019-01-26T02:34:02.684Z,98.49
2019-01-26T02:36:31.554Z,98.63
2019-01-26T02:39:00.687Z,98.70
2019-01-26T02:41:29.700Z,98.62
2019-01-26T02:43:59.162Z,98.82
2019-01-26T02:46:27.993Z,98.98
2019-01-26T02:48:57.501Z,99.03
2019-01-26T02:51:26.594Z,99.00
2019-01-26T02:53:55.872Z,99.15
2019-01-26T02:56:24.683Z,99.08
2019-01-26T02:58:53.677Z,99.28
2019-01-26T03:01:22.579Z,99.17
2019-01-26T03:03:51.531Z,99.31
2019-01-26T03:06:20.358Z,99.38
2019-01-26T03:08:49.250Z,99.43
2019-01-26T03:11:18.094Z,99.33
2019-01-26T03:13:46.901Z,99.37
2019-01-26T03:16:16.069Z,99.42
2019-01-26T03:18:45.126Z,99.40
2019-01-26T03:21:13.917Z,99.43
2019-01-26T03:23:42.771Z,99.60
2019-01-26T03:26:11.734Z,99.59
2019-01-26T03:28:41.187Z,99.72
2019-01-26T03:31:10.564Z,99.66
2019-01-26T03:33:39.706Z,99.66
2019-01-26T03:36:08.500Z,99.70
2019-01-26T03:38:37.334Z,99.83
2019-01-26T03:41:06.466Z,99.81
2019-01-26T03:43:35.913Z,99.85
2019-01-26T03:46:05.233Z,99.91
2019-01-26T03:48:34.319Z,99.98
2019-01-26T03:51:03.425Z,100.00
2019-01-26T03:53:32.750Z,100.00
2019-01-26T03:59:29.666Z,100.00
2019-01-26T04:01:58.862Z,100.00
2019-01-26T04:04:29.237Z,100.00
2019-01-26T04:06:58.425Z,100.00
2019-01-26T04:09:27.962Z,100.00
2019-01-26T04:11:57.742Z,100.00
2019-01-26T04:14:27.100Z,100.00
2019-01-26T04:16:55.983Z,100.00
2019-01-26T04:19:24.812Z,100.00
2019-01-26T04:21:53.722Z,100.00
2019-01-26T04:24:22.508Z,100.00
2019-01-26T04:26:51.450Z,100.00
2019-01-26T04:29:20.268Z,100.00
2019-01-26T04:31:49.019Z,100.00
2019-01-26T04:34:17.839Z,100.00
2019-01-26T04:36:46.661Z,100.00
2019-01-26T04:39:15.792Z,100.00
2019-01-26T04:41:45.188Z,100.00
2019-01-26T04:44:14.454Z,100.00
2019-01-26T04:46:43.741Z,100.00
2019-01-26T04:49:12.817Z,100.00
2019-01-26T04:51:41.647Z,100.00
2019-01-26T04:54:10.871Z,100.00
2019-01-26T04:56:39.717Z,100.00
2019-01-26T04:59:08.592Z,100.00
2019-01-26T05:01:37.417Z,100.00
2019-01-26T05:04:06.297Z,100.00
2019-01-26T05:06:35.134Z,100.00
2019-01-26T05:09:05.976Z,100.00
2019-01-26T05:11:34.805Z,100.00
2019-01-26T05:14:03.759Z,100.00
2019-01-26T05:16:32.897Z,100.00
2019-01-26T05:19:01.817Z,100.00
2019-01-26T05:21:30.688Z,100.00
2019-01-26T05:23:59.903Z,100.00
2019-01-26T05:26:29.052Z,100.00
2019-01-26T05:28:57.877Z,100.00
2019-01-26T05:31:27.017Z,100.00
2019-01-26T05:33:55.820Z,100.00
2019-01-26T05:36:24.674Z,100.00
2019-01-26T05:38:53.894Z,100.00
2019-01-26T05:41:22.684Z,100.00
2019-01-26T05:43:51.843Z,100.00
2019-01-26T05:46:21.054Z,100.00
2019-01-26T05:48:50.190Z,100.00
2019-01-26T05:51:19.709Z,100.00
2019-01-26T05:53:48.609Z,100.00
2019-01-26T05:56:18.524Z,100.00
2019-01-26T05:58:47.440Z,100.00
2019-01-26T06:01:16.272Z,100.00
2019-01-26T06:03:45.395Z,100.00
2019-01-26T06:06:14.216Z,100.00
2019-01-26T06:08:43.076Z,100.00
2019-01-26T06:11:11.973Z,100.00
2019-01-26T06:13:40.912Z,100.00
2019-01-26T06:16:09.976Z,100.00
2019-01-26T06:18:38.836Z,100.00
2019-01-26T06:21:07.882Z,100.00
2019-01-26T06:23:36.803Z,100.00
2019-01-26T06:26:05.931Z,100.00
2019-01-26T06:28:35.327Z,100.00
2019-01-26T06:31:04.269Z,100.00
2019-01-26T06:33:33.087Z,100.00
2019-01-26T06:36:19.706Z,99.99
2019-01-26T06:38:48.568Z,99.97
2019-01-26T06:41:17.443Z,99.94
2019-01-26T06:43:47.929Z,99.92
2019-01-26T06:46:17.105Z,99.89
2019-01-26T06:48:47.693Z,99.88
2019-01-26T06:51:17.612Z,99.87
2019-01-26T06:53:47.129Z,99.84
2019-01-26T06:56:34.196Z,99.75
2019-01-26T06:59:06.105Z,99.78
2019-01-26T07:01:36.288Z,99.71
2019-01-26T07:04:06.475Z,99.68
2019-01-26T07:10:05.780Z,99.62
2019-01-26T07:12:34.576Z,99.59
2019-01-26T07:15:04.244Z,99.66
2019-01-26T07:17:33.603Z,99.62
2019-01-26T07:20:02.566Z,99.60
2019-01-26T07:22:31.632Z,99.59
2019-01-26T07:25:00.563Z,99.59
2019-01-26T07:27:29.451Z,99.56
2019-01-26T07:29:58.373Z,99.57
2019-01-26T07:33:18.843Z,99.55
2019-01-26T07:35:47.837Z,99.54
2019-01-26T07:38:17.862Z,99.55
2019-01-26T07:40:47.174Z,99.53
2019-01-26T07:43:16.221Z,99.52
2019-01-26T07:45:45.146Z,99.51
2019-01-26T07:48:16.862Z,99.49
2019-01-26T07:50:45.279Z,99.50
2019-01-26T07:53:14.058Z,99.49
2019-01-26T07:55:43.058Z,99.52
2019-01-26T07:58:11.852Z,99.50
2019-01-26T08:00:40.970Z,99.52
2019-01-26T08:03:09.870Z,99.51
2019-01-26T08:05:38.711Z,99.52
2019-01-26T08:08:08.028Z,99.54
2019-01-26T08:10:37.098Z,99.54
2019-01-26T08:13:08.041Z,99.53
2019-01-26T08:15:38.573Z,99.53
2019-01-26T08:18:13.153Z,99.54
2019-01-26T08:20:46.004Z,99.54
2019-01-26T08:23:14.795Z,99.52
2019-01-26T08:25:43.902Z,99.51
2019-01-26T08:28:13.310Z,99.54
2019-01-26T08:30:42.221Z,99.52
2019-01-26T08:33:11.476Z,99.51
2019-01-26T08:35:40.645Z,99.52
2019-01-26T08:38:10.073Z,99.49
2019-01-26T08:40:38.835Z,99.50
2019-01-26T08:43:08.061Z,99.52
2019-01-26T08:45:37.409Z,99.48
2019-01-26T08:48:06.832Z,99.49
2019-01-26T08:50:35.698Z,99.48
2019-01-26T08:53:05.196Z,99.46
2019-01-26T08:55:34.655Z,99.49
2019-01-26T08:58:04.050Z,99.54
2019-01-26T09:00:33.008Z,99.49
2019-01-26T09:03:21.109Z,99.46
2019-01-26T09:06:12.206Z,99.48
2019-01-26T09:08:41.474Z,99.44
2019-01-26T09:11:10.824Z,99.45
2019-01-26T09:13:40.291Z,99.44
2019-01-26T09:16:09.248Z,99.44
2019-01-26T09:18:39.149Z,99.43
2019-01-26T09:21:08.008Z,99.42
2019-01-26T09:23:37.018Z,99.43
2019-01-26T09:26:06.001Z,99.43
2019-01-26T09:28:35.546Z,99.40
2019-01-26T09:31:04.639Z,99.43
2019-01-26T09:33:33.411Z,99.42
2019-01-26T09:36:02.962Z,99.41
2019-01-26T09:38:32.178Z,99.43
2019-01-26T09:41:01.402Z,99.46
2019-01-26T09:43:30.327Z,99.46
2019-01-26T09:45:59.169Z,99.45
2019-01-26T09:48:28.346Z,99.47
2019-01-26T09:50:57.770Z,99.49
2019-01-26T09:53:27.122Z,99.48
2019-01-26T09:55:56.586Z,99.50
2019-01-26T09:58:28.085Z,99.52
2019-01-26T10:00:57.087Z,99.50
2019-01-26T10:03:27.062Z,99.50
2019-01-26T10:05:56.024Z,99.49
2019-01-26T10:08:24.981Z,99.47
2019-01-26T10:10:55.233Z,99.48
2019-01-26T10:13:24.688Z,99.45
2019-01-26T10:15:53.682Z,99.44
2019-01-26T10:18:23.469Z,99.43
2019-01-26T10:20:52.894Z,99.43
2019-01-26T10:23:21.794Z,99.42
2019-01-26T10:25:50.612Z,99.38
2019-01-26T10:28:19.924Z,99.38
2019-01-26T10:31:07.170Z,99.38
2019-01-26T10:33:36.024Z,99.39
2019-01-26T10:36:24.422Z,99.37
2019-01-26T10:39:02.206Z,99.39
2019-01-26T10:41:46.121Z,99.39
2019-01-26T10:44:20.488Z,99.38
2019-01-26T10:46:51.856Z,99.39
2019-01-26T10:49:20.902Z,99.36
2019-01-26T10:51:50.043Z,99.35
2019-01-26T10:54:18.923Z,99.35
2019-01-26T10:56:48.340Z,99.35
2019-01-26T10:59:17.242Z,99.36
2019-01-26T11:01:46.511Z,99.35
2019-01-26T11:04:15.555Z,99.34
2019-01-26T11:06:44.367Z,99.32
2019-01-26T11:09:13.662Z,99.30
2019-01-26T11:11:42.710Z,99.28
2019-01-26T11:14:11.680Z,99.26
2019-01-26T11:17:18.115Z,99.24
2019-01-26T11:19:47.799Z,99.21
2019-01-26T11:25:33.079Z,99.20
2019-01-26T11:28:02.209Z,99.16
2019-01-26T11:30:32.182Z,99.16
2019-01-26T11:33:05.044Z,99.13
2019-01-26T11:35:34.121Z,99.13
2019-01-26T11:38:14.402Z,99.14
2019-01-26T11:40:55.931Z,99.14
2019-01-26T11:43:25.599Z,99.17
2019-01-26T11:46:06.920Z,99.19
2019-01-26T11:52:12.710Z,99.21
2019-01-26T11:55:03.006Z,99.19
2019-01-26T11:57:39.173Z,99.20
2019-01-26T12:00:34.004Z,99.20
2019-01-26T12:03:34.240Z,99.18
2019-01-26T12:06:10.022Z,99.14
2019-01-26T12:08:39.434Z,99.14
2019-01-26T12:11:08.667Z,99.16
2019-01-26T12:13:38.091Z,99.15
2019-01-26T12:16:06.982Z,99.10
2019-01-26T12:18:37.326Z,99.12
2019-01-26T12:21:08.460Z,99.12
2019-01-26T12:23:37.385Z,99.12
2019-01-26T12:26:06.407Z,99.15
2019-01-26T12:28:37.183Z,99.16
2019-01-26T12:31:06.485Z,99.16
2019-01-26T12:33:35.383Z,99.17
2019-01-26T12:36:04.563Z,99.18
2019-01-26T12:38:33.596Z,99.18
2019-01-26T12:41:02.515Z,99.18
2019-01-26T12:43:31.614Z,99.21
2019-01-26T12:46:00.931Z,99.19
2019-01-26T12:48:29.862Z,99.22
2019-01-26T12:50:58.883Z,99.26
2019-01-26T12:53:28.320Z,99.28
2019-01-26T12:55:57.474Z,99.29
2019-01-26T12:58:26.391Z,99.30
2019-01-26T13:00:55.363Z,99.34
2019-01-26T13:03:24.148Z,99.37
2019-01-26T13:06:32.289Z,99.42
2019-01-26T13:09:01.730Z,99.44
2019-01-26T13:11:30.926Z,99.45
2019-01-26T13:13:59.903Z,99.45
2019-01-26T13:16:28.978Z,99.46
2019-01-26T13:18:57.965Z,99.46
2019-01-26T13:21:27.117Z,99.47
2019-01-26T13:23:55.988Z,99.48
2019-01-26T13:26:24.922Z,99.50
2019-01-26T13:28:53.731Z,99.53
2019-01-26T13:31:22.728Z,99.52
2019-01-26T13:33:51.613Z,99.51
2019-01-26T13:36:20.624Z,99.52
2019-01-26T13:38:49.668Z,99.52
2019-01-26T13:41:18.771Z,99.52
2019-01-26T13:43:47.664Z,99.52
2019-01-26T13:46:16.889Z,99.54
2019-01-26T13:48:45.723Z,99.56
2019-01-26T13:51:14.664Z,99.57
2019-01-26T13:53:43.510Z,99.59
2019-01-26T13:56:12.791Z,99.57
2019-01-26T13:58:41.700Z,99.56
2019-01-26T14:01:15.024Z,99.60
2019-01-26T14:03:43.891Z,99.59
2019-01-26T14:06:12.782Z,99.60
2019-01-26T14:08:41.908Z,99.59
2019-01-26T14:11:10.891Z,99.60
2019-01-26T14:13:41.259Z,99.62
2019-01-26T14:16:10.143Z,99.60
2019-01-26T14:18:39.281Z,99.60
2019-01-26T14:21:08.068Z,99.57
2019-01-26T14:23:37.514Z,99.60
2019-01-26T14:26:06.531Z,99.65
2019-01-26T14:28:38.760Z,99.67
2019-01-26T14:31:08.771Z,99.72
2019-01-26T14:33:37.970Z,99.70
2019-01-26T14:36:07.634Z,99.72
2019-01-26T14:38:36.853Z,99.74
2019-01-26T14:41:06.116Z,99.77
2019-01-26T14:43:35.263Z,99.78
2019-01-26T14:46:04.151Z,99.79
2019-01-26T14:48:33.933Z,99.79
2019-01-26T14:51:02.845Z,99.80
2019-01-26T14:53:32.045Z,99.81
2019-01-26T14:56:01.604Z,99.84
2019-01-26T14:58:30.911Z,99.83
2019-01-26T15:01:00.212Z,99.85
2019-01-26T15:03:29.113Z,99.87
2019-01-26T15:05:57.962Z,99.90
2019-01-26T15:08:26.763Z,99.92
2019-01-26T15:10:56.332Z,99.93
2019-01-26T15:13:25.514Z,99.94
2019-01-26T15:15:54.485Z,99.95
2019-01-26T15:18:23.294Z,99.95
2019-01-26T15:20:52.114Z,99.97
2019-01-26T15:23:21.435Z,99.98
2019-01-26T15:25:50.379Z,99.99
2019-01-26T15:28:19.990Z,100.00
2019-01-26T15:30:49.076Z,99.97
2019-01-26T15:33:18.243Z,100.00
2019-01-26T15:35:47.773Z,100.00
2019-01-26T15:38:19.225Z,100.00
2019-01-26T15:40:48.173Z,100.00
2019-01-26T15:43:19.746Z,100.00
2019-01-26T15:45:50.143Z,100.00
2019-01-26T15:48:19.323Z,100.00
2019-01-26T15:50:48.665Z,100.00
2019-01-26T15:53:17.876Z,100.00
2019-01-26T15:55:46.693Z,100.00
2019-01-26T15:58:15.629Z,100.00
2019-01-26T16:00:45.962Z,100.00
2019-01-26T16:03:15.141Z,100.00
2019-01-26T16:05:44.171Z,100.00
2019-01-26T16:08:13.099Z,100.00
2019-01-26T16:10:42.192Z,100.00
2019-01-26T16:13:11.138Z,100.00
2019-01-26T16:15:40.426Z,100.00
2019-01-26T16:18:12.939Z,100.00
2019-01-26T16:20:43.790Z,100.00
2019-01-26T16:23:12.736Z,100.00
2019-01-26T16:25:41.943Z,100.00
2019-01-26T16:28:10.916Z,100.00
2019-01-26T16:30:40.248Z,100.00
2019-01-26T16:33:09.142Z,100.00
2019-01-26T16:35:38.247Z,100.00
2019-01-26T16:38:07.276Z,100.00
2019-01-26T16:40:36.762Z,100.00
2019-01-26T16:43:05.931Z,100.00
2019-01-26T16:45:37.666Z,100.00
2019-01-26T16:48:09.058Z,100.00
2019-01-26T16:50:38.152Z,100.00
2019-01-26T16:53:07.245Z,100.00
2019-01-26T16:55:36.480Z,100.00
2019-01-26T16:58:06.289Z,100.00
2019-01-26T17:00:38.665Z,100.00
2019-01-26T17:03:07.876Z,100.00
2019-01-26T17:05:37.276Z,100.00
2019-01-26T17:08:06.871Z,100.00
2019-01-26T17:10:35.973Z,100.00
2019-01-26T17:13:05.404Z,100.00
2019-01-26T17:15:34.816Z,100.00
2019-01-26T17:18:04.651Z,100.00
2019-01-26T17:20:35.125Z,100.00
2019-01-26T17:23:04.503Z,100.00
2019-01-26T17:25:34.216Z,100.00
2019-01-26T17:28:03.402Z,100.00
2019-01-26T17:30:34.607Z,100.00
2019-01-26T17:33:07.571Z,100.00
2019-01-26T17:35:34.908Z,100.00
2019-01-26T17:38:04.121Z,100.00
2019-01-26T17:40:33.197Z,100.00
2019-01-26T17:43:02.029Z,100.00
2019-01-26T17:45:31.340Z,100.00
2019-01-26T17:48:00.685Z,100.00
2019-01-26T17:50:30.662Z,100.00
2019-01-26T17:52:59.858Z,100.00
2019-01-26T17:55:29.072Z,100.00
2019-01-26T17:57:58.029Z,100.00
2019-01-26T18:00:33.982Z,100.00
2019-01-26T18:03:03.256Z,100.00
2019-01-26T18:05:32.458Z,100.00
2019-01-26T18:08:01.541Z,100.00
2019-01-26T18:10:30.498Z,99.98
2019-01-26T18:12:59.330Z,100.00
2019-01-26T18:18:04.031Z,100.00
2019-01-26T18:23:06.255Z,100.00
2019-01-26T18:25:37.332Z,100.00
2019-01-26T18:28:06.650Z,100.00
2019-01-26T18:30:35.974Z,100.00
2019-01-26T18:33:05.160Z,100.00
2019-01-26T18:35:34.127Z,100.00
2019-01-26T18:38:03.023Z,99.98
2019-01-26T18:40:31.933Z,100.00
2019-01-26T18:43:01.414Z,100.00
2019-01-26T18:45:30.490Z,100.00
2019-01-26T18:47:59.846Z,100.00
2019-01-26T18:50:30.476Z,100.00
2019-01-26T18:52:59.603Z,100.00
2019-01-26T18:55:28.998Z,100.00
2019-01-26T18:57:57.922Z,100.00
2019-01-26T19:00:32.214Z,100.00
2019-01-26T19:03:13.894Z,99.97
2019-01-26T19:05:42.777Z,100.00
2019-01-26T19:08:11.650Z,100.00
2019-01-26T19:10:40.534Z,100.00
2019-01-26T19:13:09.561Z,100.00
2019-01-26T19:15:39.540Z,100.00
2019-01-26T19:18:08.548Z,100.00
2019-01-26T19:20:37.793Z,100.00
2019-01-26T19:23:07.705Z,100.00
2019-01-26T19:25:36.600Z,100.00
2019-01-26T19:28:05.596Z,100.00
2019-01-26T19:30:53.319Z,100.00
2019-01-26T19:33:22.395Z,99.99
2019-01-26T19:35:51.276Z,100.00
2019-01-26T19:38:20.133Z,99.99
2019-01-26T19:40:49.361Z,100.00
2019-01-26T19:43:18.236Z,100.00
2019-01-26T19:45:47.144Z,100.00
2019-01-26T19:48:16.303Z,100.00
2019-01-26T19:50:45.342Z,100.00
2019-01-26T19:53:14.717Z,100.00
2019-01-26T19:55:44.436Z,99.94
2019-01-26T19:58:13.293Z,99.92
2019-01-26T20:00:42.303Z,99.92
2019-01-26T20:03:11.194Z,99.89
2019-01-26T20:05:40.061Z,99.85
2019-01-26T20:08:09.006Z,99.89
2019-01-26T20:10:38.418Z,99.89
2019-01-26T20:13:08.355Z,99.86
2019-01-26T20:15:37.234Z,99.80
2019-01-26T20:18:06.415Z,99.78
2019-01-26T20:20:35.784Z,99.73
2019-01-26T20:23:04.767Z,99.63
2019-01-26T20:25:33.741Z,99.48
2019-01-26T20:28:03.933Z,99.42
2019-01-26T20:30:33.441Z,99.43
2019-01-26T20:33:02.949Z,99.37
2019-01-26T20:35:32.312Z,99.33
2019-01-26T20:38:01.190Z,99.19
2019-01-26T20:40:30.324Z,99.11
2019-01-26T20:42:59.554Z,98.96
2019-01-26T20:45:28.926Z,98.94
2019-01-26T20:47:57.929Z,98.99
2019-01-26T20:50:26.789Z,98.99
2019-01-26T20:52:56.200Z,98.92
2019-01-26T20:55:25.123Z,98.75
2019-01-26T20:57:54.021Z,98.75
2019-01-26T21:00:25.418Z,98.76
2019-01-26T21:02:54.714Z,98.74
2019-01-26T21:05:23.970Z,98.81
2019-01-26T21:07:52.994Z,98.61
2019-01-26T21:10:24.270Z,98.56
2019-01-26T21:12:53.644Z,98.56
2019-01-26T21:15:22.853Z,98.58
2019-01-26T21:17:51.858Z,98.60
2019-01-26T21:20:21.611Z,98.57
2019-01-26T21:22:50.601Z,98.55
2019-01-26T21:25:19.996Z,98.61
2019-01-26T21:27:49.110Z,98.50
2019-01-26T21:30:23.218Z,98.54
2019-01-26T21:32:52.465Z,98.52
2019-01-26T21:35:21.558Z,98.51
2019-01-26T21:37:51.578Z,98.54
2019-01-26T21:40:26.106Z,98.54
2019-01-26T21:42:55.428Z,98.45
2019-01-26T21:45:24.828Z,98.45
2019-01-26T21:47:54.009Z,98.50
2019-01-26T21:50:27.501Z,98.21
2019-01-26T21:52:56.683Z,98.33
2019-01-26T21:55:26.052Z,98.30
2019-01-26T21:57:55.143Z,98.20
2019-01-26T22:00:27.396Z,98.18
2019-01-26T22:02:57.630Z,98.12
2019-01-26T22:05:27.134Z,98.10
2019-01-26T22:07:56.568Z,97.88
2019-01-26T22:10:26.263Z,97.83
2019-01-26T22:12:55.566Z,97.88
2019-01-26T22:15:25.080Z,97.96
2019-01-26T22:17:54.052Z,98.10
2019-01-26T22:20:25.224Z,98.22
2019-01-26T22:22:54.543Z,98.31
2019-01-26T22:25:24.450Z,98.30
2019-01-26T22:27:54.845Z,98.16
2019-01-26T22:30:25.901Z,98.00
2019-01-26T22:32:55.465Z,97.75
2019-01-26T22:35:24.815Z,97.85
2019-01-26T22:37:54.244Z,97.70
2019-01-26T22:40:30.986Z,97.78
2019-01-26T22:43:00.309Z,97.75
2019-01-26T22:45:30.051Z,97.75
2019-01-26T22:47:59.435Z,97.72
2019-01-26T22:50:28.734Z,97.26
2019-01-26T22:52:57.980Z,97.50
2019-01-26T22:55:27.333Z,97.51
2019-01-26T22:57:56.703Z,97.58
2019-01-26T23:01:03.989Z,97.59
2019-01-26T23:03:54.539Z,97.62
2019-01-26T23:07:32.087Z,97.75
2019-01-26T23:10:38.971Z,97.80
2019-01-26T23:13:28.144Z,97.80
2019-01-26T23:16:37.398Z,97.82
2019-01-26T23:19:29.605Z,97.87
2019-01-26T23:22:39.868Z,98.03
2019-01-26T23:26:01.697Z,98.20
2019-01-26T23:29:01.037Z,98.33
2019-01-26T23:31:29.972Z,98.42
2019-01-26T23:33:58.785Z,98.48
2019-01-26T23:36:38.859Z,98.53
2019-01-26T23:39:09.440Z,98.58
2019-01-26T23:41:38.328Z,98.58
2019-01-26T23:44:07.187Z,98.61
2019-01-26T23:46:35.986Z,98.64
2019-01-26T23:49:05.140Z,98.63
2019-01-26T23:51:34.392Z,98.66
2019-01-26T23:54:03.708Z,98.67
2019-01-26T23:56:32.481Z,98.65
2019-01-26T23:59:01.987Z,98.69
